Time;durP1;ratioP1;P1;durP2;ratioP2;P2;SDS_P1;SDS_P2;PMS_P1;PMS_P2;Temp;Humidity;BMP_temperature;BMP_pressure;BME280_temperature;BME280_humidity;BME280_pressure;Samples;Min_cycle;Max_cycle;Signal;HPM_P1;HPM_P2
2022/06/13 00:01:01;;;;;;;4.50;1.02;;;23.00;99.90;;;;;;1864383;77;21170;-95
2022/06/13 00:04:09;;;;;;;1.55;1.00;;;23.00;99.90;;;;;;1864528;77;21153;-96
2022/06/13 00:07:21;;;;;;;2.22;1.10;;;22.90;99.90;;;;;;1864311;77;21079;-96
2022/06/13 00:10:19;;;;;;;1.32;1.07;;;22.90;99.90;;;;;;1864458;77;21130;-95
2022/06/13 00:13:14;;;;;;;1.50;1.07;;;22.90;99.90;;;;;;1864375;77;21110;-95
2022/06/13 00:16:11;;;;;;;2.20;1.30;;;22.90;99.90;;;;;;1864647;77;21169;-95
2022/06/13 00:19:14;;;;;;;2.15;1.15;;;22.80;99.90;;;;;;1864418;77;21161;-94
2022/06/13 00:22:13;;;;;;;1.70;0.85;;;22.70;99.90;;;;;;1840313;77;21098;-94
2022/06/13 00:25:16;;;;;;;2.45;0.90;;;22.60;99.90;;;;;;1840413;78;21074;-95
2022/06/13 00:28:19;;;;;;;1.65;1.00;;;22.50;99.90;;;;;;1875205;76;21141;-95
2022/06/13 00:31:17;;;;;;;1.02;0.90;;;22.40;99.90;;;;;;1880877;76;21634;-93
2022/06/13 00:34:17;;;;;;;2.12;1.05;;;22.30;99.90;;;;;;1880957;76;21069;-94
2022/06/13 00:37:14;;;;;;;2.20;1.00;;;22.30;99.90;;;;;;1880885;76;21078;-95
2022/06/13 00:40:16;;;;;;;1.25;1.10;;;22.20;99.90;;;;;;1881091;76;21105;-95
2022/06/13 00:43:11;;;;;;;1.65;1.07;;;22.10;99.90;;;;;;1880837;76;21126;-95
2022/06/13 00:46:20;;;;;;;1.50;0.95;;;22.10;99.90;;;;;;1881106;76;21105;-94
2022/06/13 00:49:39;;;;;;;3.45;1.20;;;22.00;99.90;;;;;;1880907;76;21176;-93
2022/06/13 00:52:39;;;;;;;4.80;1.20;;;22.10;99.90;;;;;;1885630;74;21101;-95
2022/06/13 00:55:34;;;;;;;1.62;1.17;;;22.00;99.90;;;;;;1908179;74;21135;-94
2022/06/13 00:58:30;;;;;;;1.52;1.10;;;22.00;99.90;;;;;;1879890;75;21176;-95
2022/06/13 01:01:22;;;;;;;2.90;1.17;;;21.90;99.90;;;;;;1891466;75;21031;-94
2022/06/13 01:04:17;;;;;;;1.15;1.00;;;21.80;99.90;;;;;;1851883;76;21023;-93
2022/06/13 01:07:10;;;;;;;1.00;0.90;;;21.70;99.90;;;;;;1905009;75;21104;-94
2022/06/13 01:13:26;;;;;;;1.45;1.00;;;21.40;99.90;;;;;;1905391;75;21156;-95
2022/06/13 01:16:28;;;;;;;3.00;1.40;;;21.40;99.90;;;;;;1905423;75;21156;-94
2022/06/13 01:20:00;;;;;;;2.70;1.10;;;21.50;99.90;;;;;;1905234;75;21082;-95
2022/06/13 01:23:57;;;;;;;1.60;0.90;;;21.50;99.90;;;;;;1905452;75;21077;-95
2022/06/13 01:27:51;;;;;;;2.33;1.00;;;21.50;99.90;;;;;;1905235;75;21766;-94
2022/06/13 01:31:11;;;;;;;2.67;1.27;;;21.40;99.90;;;;;;1904974;75;21096;-95
2022/06/13 01:34:31;;;;;;;2.10;1.02;;;21.30;99.90;;;;;;1905120;75;21070;-94
2022/06/13 01:37:35;;;;;;;2.42;1.10;;;21.20;99.90;;;;;;1905197;75;21030;-95
2022/06/13 01:40:41;;;;;;;1.42;0.98;;;21.20;99.90;;;;;;1905133;75;21055;-95
2022/06/13 01:43:50;;;;;;;1.57;1.00;;;21.20;99.90;;;;;;1904929;75;21078;-94
2022/06/13 01:46:48;;;;;;;3.08;1.10;;;21.20;99.90;;;;;;1905463;75;21019;-94
2022/06/13 01:49:55;;;;;;;2.33;1.12;;;21.20;99.90;;;;;;1905131;75;21056;-95
2022/06/13 01:53:13;;;;;;;1.85;0.82;;;21.10;99.90;;;;;;1905186;75;21047;-95
2022/06/13 01:56:20;;;;;;;2.22;1.20;;;21.10;99.90;;;;;;1868096;76;21098;-94
2022/06/13 01:59:27;;;;;;;1.95;0.85;;;21.00;99.90;;;;;;1867698;75;21106;-96
2022/06/13 02:02:34;;;;;;;2.67;1.30;;;20.90;99.90;;;;;;1868232;77;21094;-94
2022/06/13 02:05:34;;;;;;;1.72;1.00;;;20.90;99.90;;;;;;1854394;75;21143;-95
2022/06/13 02:08:32;;;;;;;1.95;0.93;;;20.80;99.90;;;;;;1880941;75;21066;-95
2022/06/13 02:11:30;;;;;;;3.43;1.00;;;20.80;99.90;;;;;;1816019;78;21203;-94
2022/06/13 02:14:25;;;;;;;3.15;1.00;;;20.80;99.90;;;;;;1829878;76;21317;-94
2022/06/13 02:17:22;;;;;;;3.67;1.10;;;20.80;99.90;;;;;;1865125;75;21363;-95
2022/06/13 02:20:20;;;;;;;3.35;1.15;;;20.80;99.90;;;;;;1892447;75;21083;-94
2022/06/13 02:23:16;;;;;;;2.10;0.90;;;20.90;99.90;;;;;;1857722;76;21064;-93
2022/06/13 02:26:16;;;;;;;1.10;1.00;;;20.90;99.90;;;;;;1818319;78;21092;-94
2022/06/13 02:29:15;;;;;;;1.87;0.90;;;20.90;99.90;;;;;;1817039;78;21127;-95
2022/06/13 02:32:13;;;;;;;2.22;1.15;;;21.00;99.90;;;;;;1817419;78;21109;-94
2022/06/13 02:35:12;;;;;;;1.72;1.10;;;21.10;99.90;;;;;;1846300;75;21098;-94
2022/06/13 02:38:10;;;;;;;1.35;0.98;;;21.10;99.90;;;;;;1844132;76;21244;-94
2022/06/13 02:41:16;;;;;;;1.55;1.20;;;21.10;99.90;;;;;;1821754;76;21172;-93
2022/06/13 02:44:19;;;;;;;1.62;1.12;;;21.20;99.90;;;;;;1847680;75;21107;-94
2022/06/13 02:47:13;;;;;;;3.60;1.10;;;21.20;99.90;;;;;;1815076;78;21121;-93
2022/06/13 02:50:08;;;;;;;1.62;1.15;;;21.20;99.90;;;;;;1829970;77;21107;-96
2022/06/13 02:53:04;;;;;;;1.77;1.00;;;21.20;99.90;;;;;;1857257;75;21250;-94
2022/06/13 02:56:01;;;;;;;1.22;1.00;;;21.20;99.90;;;;;;1886197;74;21545;-94
2022/06/13 02:58:54;;;;;;;;;;;21.20;99.90;;;;;;1883690;75;21233;-95
2022/06/13 03:02:01;;;;;;;1.67;1.07;;;21.10;99.90;;;;;;1833800;78;20198;-95
2022/06/13 03:04:58;;;;;;;1.42;1.10;;;21.10;99.90;;;;;;1889250;74;21170;-93
2022/06/13 03:07:54;;;;;;;2.58;1.20;;;21.10;99.90;;;;;;1885059;74;21155;-93
2022/06/13 03:10:52;;;;;;;3.22;1.20;;;21.10;99.90;;;;;;1892560;74;21104;-94
2022/06/13 03:13:47;;;;;;;6.55;1.30;;;21.10;99.90;;;;;;1888038;74;21152;-94
2022/06/13 03:16:49;;;;;;;3.00;1.20;;;21.10;99.90;;;;;;1895250;74;21115;-93
2022/06/13 03:19:46;;;;;;;2.47;1.10;;;21.00;99.90;;;;;;1878355;74;21095;-93
2022/06/13 04:53:45;;;;;;;2.35;1.50;;;20.70;99.90;;;;;;1950026;72;22212;-81
2022/06/13 04:56:58;;;;;;;2.15;1.60;;;20.60;99.90;;;;;;1921188;73;21130;-80
2022/06/13 05:00:12;;;;;;;2.45;1.45;;;20.60;99.90;;;;;;1916887;73;21115;-79
2022/06/13 05:03:03;;;;;;;3.80;1.70;;;20.60;99.90;;;;;;1917744;73;21173;-79
2022/06/13 05:06:22;;;;;;;2.67;1.30;;;20.60;99.90;;;;;;1881196;75;21139;-79
2022/06/13 05:09:18;;;;;;;2.62;1.40;;;20.50;99.90;;;;;;1921292;73;21114;-79
2022/06/13 05:12:14;;;;;;;3.00;1.32;;;20.50;99.90;;;;;;1917125;73;21232;-79
2022/06/13 05:15:08;;;;;;;1.32;1.20;;;20.50;99.90;;;;;;1923069;73;21157;-79
2022/06/13 05:18:19;;;;;;;2.60;1.27;;;20.50;99.90;;;;;;1917180;73;21153;-79
2022/06/13 05:21:19;;;;;;;3.85;1.52;;;20.60;99.90;;;;;;1924926;73;21149;-79
2022/06/13 05:24:19;;;;;;;2.83;1.30;;;20.60;99.90;;;;;;1921465;73;21253;-79
2022/06/13 05:27:10;;;;;;;1.77;1.30;;;20.70;99.90;;;;;;1917585;73;21118;-79
2022/06/13 05:30:01;;;;;;;2.87;1.60;;;20.80;99.90;;;;;;1916386;73;21276;-79
2022/06/13 05:32:53;;;;;;;2.90;1.50;;;20.80;99.90;;;;;;1880302;75;21499;-78
2022/06/13 05:35:45;;;;;;;1.67;1.27;;;20.90;99.90;;;;;;1919179;73;21165;-78
2022/06/13 05:38:40;;;;;;;2.45;1.45;;;21.00;99.90;;;;;;1916858;73;21106;-78
2022/06/13 05:41:32;;;;;;;3.62;2.30;;;21.00;99.90;;;;;;1918038;73;21220;-78
2022/06/13 05:44:23;;;;;;;3.02;1.72;;;21.10;99.90;;;;;;1921991;73;21078;-78
2022/06/13 05:47:19;;;;;;;5.10;1.80;;;21.20;99.90;;;;;;1917495;73;21078;-79
2022/06/13 05:50:16;;;;;;;2.90;1.80;;;21.30;99.90;;;;;;1915943;73;21106;-78
2022/06/13 05:53:09;;;;;;;4.15;1.70;;;21.40;99.90;;;;;;1922457;73;21054;-78
2022/06/13 05:56:03;;;;;;;3.42;1.62;;;21.50;99.90;;;;;;1933344;73;22392;-78
2022/06/13 05:58:54;;;;;;;2.17;1.42;;;21.50;99.90;;;;;;1942669;73;21216;-78
2022/06/13 06:01:45;;;;;;;2.02;1.45;;;21.50;99.90;;;;;;1932013;73;21103;-78
2022/06/13 06:04:36;;;;;;;2.52;1.85;;;21.50;99.90;;;;;;1937792;73;21213;-78
2022/06/13 06:07:29;;;;;;;2.20;1.55;;;21.60;99.90;;;;;;1933171;73;21159;-78
2022/06/13 06:10:23;;;;;;;4.78;1.55;;;21.50;99.90;;;;;;1888430;75;21108;-78
2022/06/13 06:13:14;;;;;;;1.80;1.27;;;21.60;99.90;;;;;;1888778;75;21058;-78
2022/06/13 06:16:06;;;;;;;2.20;1.40;;;21.70;99.90;;;;;;1937750;73;21522;-78
2022/06/13 06:18:58;;;;;;;2.55;1.60;;;21.70;99.90;;;;;;1888645;75;21110;-78
2022/06/13 06:21:49;;;;;;;3.15;1.47;;;21.80;99.90;;;;;;1938267;73;21138;-78
2022/06/13 06:24:42;;;;;;;2.52;1.30;;;21.80;99.90;;;;;;1888837;75;21126;-94
2022/06/13 06:27:35;;;;;;;2.22;1.40;;;21.80;99.90;;;;;;1933732;74;21081;-95
2022/06/13 06:30:46;;;;;;;1.92;1.20;;;21.90;99.90;;;;;;1890654;76;21162;-95
2022/06/13 06:33:38;;;;;;;2.17;1.27;;;21.90;99.90;;;;;;1949294;73;21114;-91
2022/06/13 06:36:31;;;;;;;2.35;1.60;;;21.90;99.90;;;;;;1856828;76;21111;-93
2022/06/13 06:39:23;;;;;;;1.40;1.20;;;21.80;99.90;;;;;;1947562;73;21159;-93
2022/06/13 06:42:18;;;;;;;1.85;1.55;;;21.80;99.90;;;;;;1902334;75;21299;-94
2022/06/13 06:45:17;;;;;;;2.15;1.50;;;21.80;99.90;;;;;;1940312;73;21130;-93
2022/06/13 06:48:13;;;;;;;2.47;1.52;;;21.90;99.90;;;;;;1933435;74;21152;-92
2022/06/13 06:51:07;;;;;;;3.12;1.87;;;22.00;99.90;;;;;;1934382;73;21127;-94
2022/06/13 07:00:21;;;;;;;4.30;1.90;;;22.10;99.90;;;;;;1906382;74;21094;-92
2022/06/13 07:03:14;;;;;;;4.65;1.55;;;22.20;99.90;;;;;;1917338;75;21106;-93
2022/06/13 07:06:07;;;;;;;3.75;1.55;;;22.10;99.90;;;;;;1924456;73;21116;-94
2022/06/13 07:08:59;;;;;;;2.80;1.45;;;22.10;99.90;;;;;;1870837;76;21180;-93
2022/06/13 07:11:57;;;;;;;6.03;1.80;;;22.20;99.90;;;;;;1888351;75;21109;-92
2022/06/13 07:14:50;;;;;;;5.80;1.77;;;22.30;99.90;;;;;;1912815;73;21173;-91
2022/06/13 07:17:41;;;;;;;5.37;1.62;;;22.30;99.90;;;;;;1908165;75;21043;-94
2022/06/13 07:20:34;;;;;;;7.75;2.42;;;22.30;99.90;;;;;;1919606;73;21142;-94
2022/06/13 07:23:25;;;;;;;3.02;1.20;;;22.40;99.90;;;;;;1912123;74;21114;-93
2022/06/13 07:26:18;;;;;;;4.10;1.50;;;22.30;99.90;;;;;;1904760;75;21084;-95
2022/06/13 07:29:11;;;;;;;3.10;1.12;;;22.40;99.90;;;;;;1918691;75;21052;-95
2022/06/13 07:32:11;;;;;;;4.25;1.20;;;22.50;99.90;;;;;;1920271;73;21088;-93
2022/06/13 07:35:02;;;;;;;1.98;1.27;;;22.50;99.90;;;;;;1919601;73;21140;-93
2022/06/13 07:41:04;;;;;;;5.12;1.50;;;22.70;99.90;;;;;;1910314;74;21100;-92
2022/06/13 07:43:57;;;;;;;3.90;1.25;;;22.70;99.90;;;;;;1905395;74;21096;-93
2022/06/13 07:46:50;;;;;;;2.77;1.15;;;22.70;99.90;;;;;;1868894;75;21115;-94
2022/06/13 07:49:42;;;;;;;5.67;1.27;;;22.80;99.90;;;;;;1868616;75;21130;-82
2022/06/13 07:52:33;;;;;;;2.58;1.30;;;22.80;99.90;;;;;;1849718;76;21248;-83
2022/06/13 07:55:31;;;;;;;3.62;1.87;;;22.90;99.90;;;;;;1860047;76;21142;-83
2022/06/13 07:58:26;;;;;;;1.52;1.40;;;23.10;99.90;;;;;;1846726;77;21067;-83
2022/06/13 08:01:20;;;;;;;3.27;1.55;;;23.10;99.90;;;;;;1847329;77;21216;-83
2022/06/13 08:04:12;;;;;;;2.37;1.32;;;23.10;99.90;;;;;;1840158;77;21117;-83
2022/06/13 08:07:04;;;;;;;4.00;1.45;;;23.30;99.90;;;;;;1849485;76;21908;-83
2022/06/13 08:09:57;;;;;;;3.00;1.20;;;23.50;99.90;;;;;;1854048;76;21102;-83
2022/06/13 08:12:49;;;;;;;3.45;1.30;;;23.60;99.90;;;;;;1923283;73;21189;-83
2022/06/13 08:15:41;;;;;;;2.52;1.60;;;23.70;99.90;;;;;;1867217;75;21087;-83
2022/06/13 08:18:33;;;;;;;2.42;1.20;;;23.90;99.90;;;;;;1839546;77;21134;-83
2022/06/13 08:21:24;;;;;;;2.55;1.32;;;24.00;99.90;;;;;;1865119;76;21118;-83
2022/06/13 08:24:16;;;;;;;2.35;1.65;;;24.00;99.90;;;;;;1861554;77;21084;-83
2022/06/13 08:27:08;;;;;;;2.52;1.32;;;24.00;99.90;;;;;;1915583;73;21097;-83
2022/06/13 08:32:42;;;;;;;3.20;1.35;;;24.20;99.90;;;;;;1949883;72;22176;-83
2022/06/13 08:35:53;;;;;;;3.75;1.85;;;24.20;99.90;;;;;;1917142;73;21160;-81
2022/06/13 08:39:03;;;;;;;5.75;2.00;;;24.30;99.90;;;;;;1881451;75;21920;-83
2022/06/13 08:41:59;;;;;;;4.80;2.35;;;24.40;99.90;;;;;;1916442;73;21082;-84
2022/06/13 08:45:14;;;;;;;4.53;2.47;;;24.40;99.90;;;;;;1923443;73;21108;-83
2022/06/13 08:48:10;;;;;;;2.60;2.33;;;24.30;99.90;;;;;;1916303;73;21813;-84
2022/06/13 08:53:49;;;;;;;3.95;2.52;;;24.10;99.90;;;;;;1929240;72;22119;-83
2022/06/13 08:57:00;;;;;;;4.00;2.50;;;24.10;99.90;;;;;;1894665;75;21175;-83
2022/06/13 09:00:14;;;;;;;4.17;2.58;;;24.20;99.90;;;;;;1902161;73;21163;-83
2022/06/13 09:03:10;;;;;;;5.35;2.60;;;24.20;99.90;;;;;;1894272;75;21499;-83
2022/06/13 09:06:24;;;;;;;4.80;2.40;;;24.30;99.90;;;;;;1894976;73;21121;-84
2022/06/13 09:09:19;;;;;;;5.15;2.60;;;24.30;99.90;;;;;;1897404;73;21062;-84
2022/06/13 09:12:14;;;;;;;3.17;2.87;;;24.40;99.90;;;;;;1895149;75;21461;-83
2022/06/13 09:15:09;;;;;;;3.72;2.60;;;24.40;99.90;;;;;;1903994;74;21125;-84
2022/06/13 09:18:05;;;;;;;4.70;2.65;;;24.40;99.90;;;;;;1904735;75;21450;-83
2022/06/13 09:21:01;;;;;;;4.30;2.65;;;24.30;99.90;;;;;;1905564;73;21484;-83
2022/06/13 09:23:59;;;;;;;3.37;2.50;;;24.40;99.90;;;;;;1897868;73;21154;-83
2022/06/13 09:26:53;;;;;;;5.87;2.65;;;24.40;99.90;;;;;;1905981;75;21220;-82
2022/06/13 09:29:48;;;;;;;4.58;3.00;;;24.50;99.90;;;;;;1901415;75;21094;-84
2022/06/13 09:32:42;;;;;;;3.70;2.50;;;24.60;99.90;;;;;;1897073;75;21547;-83
2022/06/13 09:35:37;;;;;;;4.28;2.45;;;24.60;99.90;;;;;;1899220;73;21228;-85
2022/06/13 09:38:33;;;;;;;4.58;2.50;;;24.80;99.90;;;;;;1902708;73;21163;-84
2022/06/13 09:41:51;;;;;;;4.95;2.70;;;24.90;99.90;;;;;;1903270;75;21112;-83
2022/06/13 09:44:56;;;;;;;5.10;2.62;;;24.90;99.90;;;;;;1888944;75;21170;-83
2022/06/13 09:47:51;;;;;;;4.47;2.77;;;24.90;99.90;;;;;;1894288;75;21865;-84
2022/06/13 09:50:46;;;;;;;4.03;2.50;;;25.00;99.90;;;;;;1905752;74;21097;-83
2022/06/13 09:53:42;;;;;;;8.45;3.62;;;25.00;99.90;;;;;;1888416;75;21192;-84
2022/06/13 09:56:37;;;;;;;4.22;2.42;;;25.20;99.90;;;;;;1885988;75;21169;-83
2022/06/13 09:59:36;;;;;;;4.90;2.75;;;25.10;99.90;;;;;;1904623;75;21572;-83
2022/06/13 10:02:30;;;;;;;5.60;2.70;;;25.20;99.90;;;;;;1880773;75;21163;-83
2022/06/13 10:05:38;;;;;;;5.12;2.45;;;25.20;99.90;;;;;;1911108;73;21774;-84
2022/06/13 10:08:44;;;;;;;3.92;2.80;;;25.30;99.90;;;;;;1900057;73;21209;-83
2022/06/13 10:11:42;;;;;;;4.20;2.70;;;25.50;99.90;;;;;;1895602;75;21084;-83
2022/06/13 10:14:55;;;;;;;4.28;2.65;;;25.30;99.90;;;;;;1888213;75;21170;-84
2022/06/13 10:17:58;;;;;;;2.80;2.42;;;25.40;99.90;;;;;;1893996;75;21180;-82
2022/06/13 10:20:53;;;;;;;5.97;3.15;;;25.30;99.90;;;;;;1898763;75;21127;-83
2022/06/13 10:23:47;;;;;;;4.25;2.42;;;25.40;99.90;;;;;;1885345;75;21104;-83
2022/06/13 10:26:43;;;;;;;3.08;2.35;;;25.50;99.90;;;;;;1878585;75;21109;-83
2022/06/13 10:30:04;;;;;;;3.10;2.30;;;25.50;99.90;;;;;;1898157;75;21169;-83
2022/06/13 10:33:07;;;;;;;3.87;2.50;;;25.60;99.90;;;;;;1885681;75;21147;-85
2022/06/13 10:36:02;;;;;;;5.08;2.22;;;25.70;99.90;;;;;;1889608;74;21147;-83
2022/06/13 10:39:00;;;;;;;3.12;2.50;;;25.70;99.90;;;;;;1909093;73;21231;-83
2022/06/13 10:41:54;;;;;;;5.50;2.08;;;25.60;99.90;;;;;;1895509;75;21101;-84
2022/06/13 10:44:45;;;;;;;7.33;2.58;;;25.60;99.90;;;;;;1904196;75;21115;-84
2022/06/13 10:50:28;;;;;;;4.72;2.25;;;25.70;99.90;;;;;;1940887;72;22146;-86
2022/06/13 10:53:42;;;;;;;3.67;2.20;;;25.80;99.90;;;;;;1930153;73;21153;-84
2022/06/13 10:56:55;;;;;;;4.33;2.52;;;25.80;99.90;;;;;;1916264;73;21114;-85
2022/06/13 10:59:48;;;;;;;5.15;2.50;;;25.80;99.90;;;;;;1916730;73;21169;-85
2022/06/13 11:03:14;;;;;;;3.10;2.22;;;25.80;99.90;;;;;;1916595;73;21193;-84
2022/06/13 11:06:08;;;;;;;3.92;2.50;;;25.90;99.90;;;;;;1916122;73;21162;-82
2022/06/13 11:09:01;;;;;;;3.20;2.08;;;25.90;99.90;;;;;;1916252;73;21141;-83
2022/06/13 11:11:58;;;;;;;5.22;2.35;;;26.00;99.90;;;;;;1916382;73;21050;-82
2022/06/13 11:27:40;;;;;;;3.95;1.90;;;26.10;99.90;;;;;;1948553;72;22209;-86
2022/06/13 11:30:53;;;;;;;5.35;2.15;;;26.20;99.90;;;;;;1916307;73;21126;-84
2022/06/13 11:34:22;;;;;;;2.70;1.98;;;26.10;99.90;;;;;;1915886;73;21180;-84
2022/06/13 11:37:22;;;;;;;3.83;1.90;;;26.20;99.90;;;;;;1914691;73;21166;-85
2022/06/13 11:40:32;;;;;;;5.33;1.98;;;26.30;99.90;;;;;;1915597;73;21500;-85
2022/06/13 11:43:26;;;;;;;5.65;2.02;;;26.30;99.90;;;;;;1918656;73;21123;-85
2022/06/13 11:49:39;;;;;;;3.95;1.77;;;26.50;99.90;;;;;;1936432;72;22354;-85
2022/06/13 11:56:27;;;;;;;4.67;1.87;;;26.30;99.90;;;;;;1906333;74;21173;-86
2022/06/13 11:59:20;;;;;;;3.95;1.75;;;26.50;99.90;;;;;;1912043;74;21153;-84
2022/06/13 12:02:37;;;;;;;4.92;1.90;;;26.40;99.90;;;;;;1909874;74;21179;-88
2022/06/13 12:05:33;;;;;;;2.92;1.60;;;26.50;99.90;;;;;;1912079;74;21189;-90
2022/06/13 12:08:27;;;;;;;5.10;1.75;;;26.40;99.90;;;;;;1910315;74;21103;-89
2022/06/13 12:11:26;;;;;;;6.33;1.87;;;26.40;99.90;;;;;;1908404;74;21229;-89
2022/06/13 12:14:21;;;;;;;4.97;1.80;;;26.70;99.90;;;;;;1904744;74;21244;-91
2022/06/13 12:17:17;;;;;;;7.60;1.87;;;26.80;99.90;;;;;;1908560;74;21165;-84
2022/06/13 12:20:30;;;;;;;2.83;1.60;;;26.80;99.90;;;;;;1911748;74;21198;-89
2022/06/13 12:23:27;;;;;;;4.25;1.90;;;26.90;99.90;;;;;;1910279;73;21203;-89
2022/06/13 12:29:15;;;;;;;3.42;1.50;;;26.90;99.90;;;;;;1921778;72;22301;-89
2022/06/13 12:32:30;;;;;;;4.20;1.80;;;26.90;99.90;;;;;;1894087;74;21986;-89
2022/06/13 12:35:48;;;;;;;7.10;2.25;;;27.00;99.90;;;;;;1900440;74;21078;-88
2022/06/13 12:39:01;;;;;;;4.12;1.77;;;27.20;99.90;;;;;;1902376;74;21116;-88
2022/06/13 12:42:17;;;;;;;5.22;1.72;;;27.20;99.90;;;;;;1899841;74;21080;-89
2022/06/13 12:45:45;;;;;;;4.42;1.60;;;27.30;99.90;;;;;;1896849;74;21147;-90
2022/06/13 12:48:45;;;;;;;3.72;1.67;;;27.50;99.90;;;;;;1894651;74;21288;-88
2022/06/13 12:51:42;;;;;;;5.97;1.77;;;27.60;99.90;;;;;;1893350;74;21237;-88
2022/06/13 12:54:53;;;;;;;3.55;1.72;;;27.70;99.90;;;;;;1892662;74;21154;-87
2022/06/13 12:57:53;;;;;;;3.50;1.65;;;27.60;99.90;;;;;;1897002;74;21099;-89
2022/06/13 13:00:47;;;;;;;4.25;1.95;;;27.40;99.90;;;;;;1903390;74;21069;-92
2022/06/13 13:07:02;;;;;;;3.85;1.50;;;27.30;99.90;;;;;;1925392;72;22269;-88
2022/06/13 13:10:31;;;;;;;3.35;1.95;;;27.50;99.90;;;;;;1873867;75;21577;-87
2022/06/13 13:13:48;;;;;;;3.35;1.50;;;27.50;99.90;;;;;;1884387;75;21187;-91
2022/06/13 13:19:32;;;;;;;6.97;2.00;;;27.50;99.90;;;;;;1921796;72;27986;-89
2022/06/13 13:22:57;;;;;;;7.37;1.90;;;27.80;99.90;;;;;;1906508;73;21548;-86
2022/06/13 13:26:25;;;;;;;3.02;1.47;;;27.70;99.90;;;;;;1900557;75;21182;-92
2022/06/13 13:29:22;;;;;;;3.75;1.77;;;27.90;99.90;;;;;;1899016;75;21271;-86
2022/06/13 13:35:24;;;;;;;3.37;1.60;;;28.00;99.90;;;;;;1954623;72;22563;-87
2022/06/13 13:38:37;;;;;;;2.92;1.42;;;27.90;99.90;;;;;;1918520;73;21044;-88
2022/06/13 13:44:33;;;;;;;2.92;1.40;;;28.00;99.90;;;;;;1955292;72;22180;-91
2022/06/13 13:47:44;;;;;;;3.98;1.40;;;28.30;99.90;;;;;;1909618;74;21058;-86
2022/06/13 13:51:22;;;;;;;3.05;1.52;;;28.20;99.90;;;;;;1906093;75;21142;-87
2022/06/13 13:54:18;;;;;;;4.15;1.40;;;28.50;99.90;;;;;;1893941;75;21088;-91
2022/06/13 13:57:33;;;;;;;5.25;1.80;;;28.70;99.90;;;;;;1901327;73;21261;-91
2022/06/13 14:00:29;;;;;;;7.72;1.60;;;29.00;99.90;;;;;;1900491;73;21119;-91
2022/06/13 14:03:29;;;;;;;4.40;0.98;;;29.10;99.90;;;;;;1901313;73;21525;-91
2022/06/13 14:06:25;;;;;;;1.47;1.15;;;29.10;99.90;;;;;;1905615;75;21163;-89
2022/06/13 14:09:19;;;;;;;;;;;29.20;99.90;;;;;;1910335;73;21169;-94
2022/06/13 14:12:14;;;;;;;3.77;1.40;;;29.30;99.90;;;;;;1911169;73;20237;-90
2022/06/13 14:15:13;;;;;;;2.98;1.30;;;29.30;99.90;;;;;;1908046;75;21197;-90
2022/06/13 14:18:09;;;;;;;2.72;1.47;;;29.50;99.90;;;;;;1906414;72;21118;-89
2022/06/13 14:21:03;;;;;;;4.92;1.30;;;29.60;99.90;;;;;;1897209;75;21125;-89
2022/06/13 14:23:58;;;;;;;7.58;1.60;;;29.90;99.90;;;;;;1906935;75;21091;-94
2022/06/13 14:27:09;;;;;;;3.12;1.65;;;29.80;99.90;;;;;;1869054;74;21208;-92
2022/06/13 14:38:02;;;;;;;2.90;1.50;;;29.70;99.90;;;;;;1955107;72;21114;-89
2022/06/13 14:41:18;;;;;;;6.47;1.50;;;29.60;99.90;;;;;;2033082;69;21551;-92
2022/06/13 14:44:17;;;;;;;2.65;1.32;;;29.80;99.90;;;;;;2034567;69;21110;-93
2022/06/13 14:47:36;;;;;;;3.47;1.30;;;30.10;99.90;;;;;;2040126;69;21052;-92
2022/06/13 14:50:43;;;;;;;3.05;1.30;;;30.30;99.90;;;;;;2035949;69;21110;-94
2022/06/13 14:53:48;;;;;;;4.83;1.62;;;30.20;99.90;;;;;;2040007;69;21115;-92
2022/06/13 14:56:43;;;;;;;3.05;1.60;;;30.40;99.90;;;;;;2032931;69;21082;-93
2022/06/13 15:20:22;;;;;;;1.85;1.40;;;31.00;99.90;;;;;;2013647;71;22527;-92
2022/06/13 15:23:35;;;;;;;2.85;1.50;;;31.00;99.90;;;;;;1954812;73;21074;-91
2022/06/13 15:26:48;;;;;;;3.60;1.20;;;31.30;99.90;;;;;;1992090;72;21105;-91
2022/06/13 15:29:40;;;;;;;3.52;1.40;;;31.20;99.90;;;;;;2034735;70;21095;-93
2022/06/13 15:32:54;;;;;;;3.37;1.37;;;31.20;99.90;;;;;;2032222;70;21069;-94
2022/06/13 15:35:53;;;;;;;4.63;1.73;;;31.10;99.60;;;;;;2034897;70;21287;-92
2022/06/13 15:38:46;;;;;;;3.37;1.37;;;30.90;99.10;;;;;;2032259;70;21079;-90
2022/06/13 15:41:41;;;;;;;3.37;1.42;;;31.00;99.00;;;;;;2032028;70;21030;-90
2022/06/13 15:44:36;;;;;;;2.60;1.65;;;30.90;98.80;;;;;;2032341;70;21084;-92
2022/06/13 15:47:32;;;;;;;1.72;1.20;;;31.20;98.10;;;;;;2032929;70;21159;-91
2022/06/13 15:50:27;;;;;;;2.45;1.27;;;31.30;97.90;;;;;;2032800;70;21081;-91
2022/06/13 15:53:28;;;;;;;3.72;1.50;;;31.00;97.50;;;;;;2056644;69;21060;-90
2022/06/13 15:59:22;;;;;;;4.45;1.40;;;31.40;96.80;;;;;;1950068;72;22139;-92
2022/06/13 16:02:36;;;;;;;7.75;1.65;;;31.00;96.40;;;;;;1916551;75;21011;-89
2022/06/13 16:05:54;;;;;;;4.28;1.90;;;31.20;96.20;;;;;;1885990;75;21133;-91
2022/06/13 16:08:51;;;;;;;2.58;1.30;;;31.40;96.00;;;;;;1882866;75;21105;-89
2022/06/13 16:12:08;;;;;;;4.75;1.77;;;31.40;95.60;;;;;;1838353;77;21632;-93
2022/06/13 16:15:05;;;;;;;3.67;1.30;;;31.80;95.20;;;;;;1873011;76;21098;-92
2022/06/13 16:17:59;;;;;;;1.57;1.10;;;32.00;94.60;;;;;;1897499;75;21140;-88
2022/06/13 16:20:56;;;;;;;3.58;1.50;;;31.70;93.80;;;;;;1885128;75;21149;-89
2022/06/13 16:23:54;;;;;;;2.12;1.32;;;31.50;94.30;;;;;;1878348;74;21108;-90
2022/06/13 16:26:46;;;;;;;3.02;1.17;;;31.90;93.90;;;;;;1873004;76;21127;-92
2022/06/13 16:29:40;;;;;;;3.45;1.32;;;32.10;93.20;;;;;;1882022;75;21099;-91
2022/06/13 16:32:32;;;;;;;2.70;1.50;;;32.60;93.20;;;;;;1884379;75;21060;-91
2022/06/13 16:35:28;;;;;;;3.08;1.25;;;32.40;92.30;;;;;;1905411;75;21102;-89
2022/06/13 16:38:20;;;;;;;3.87;1.20;;;32.10;91.80;;;;;;1884782;73;21054;-92
2022/06/13 16:41:24;;;;;;;1.98;1.25;;;32.30;91.90;;;;;;1891302;76;21050;-92
2022/06/13 16:44:19;;;;;;;2.45;1.20;;;32.00;91.80;;;;;;1886736;76;21178;-90
2022/06/13 16:50:24;;;;;;;4.22;1.10;;;31.70;91.70;;;;;;1986994;71;22123;-88
2022/06/13 16:53:36;;;;;;;1.98;1.40;;;31.70;91.70;;;;;;1953284;73;21136;-91
2022/06/13 16:56:49;;;;;;;2.92;1.60;;;31.60;91.50;;;;;;2034855;70;21027;-92
2022/06/13 16:59:50;;;;;;;4.12;1.37;;;31.40;91.30;;;;;;2034251;70;21176;-89
2022/06/13 17:03:07;;;;;;;5.40;1.50;;;31.20;91.40;;;;;;2034051;70;21471;-89
2022/06/13 17:06:00;;;;;;;3.80;1.40;;;31.30;91.20;;;;;;2033797;70;21159;-92
2022/06/13 17:09:04;;;;;;;2.42;1.30;;;31.10;91.50;;;;;;2033409;70;21136;-91
2022/06/13 17:12:01;;;;;;;3.35;1.27;;;31.10;91.60;;;;;;2032479;70;21062;-93
2022/06/13 17:14:56;;;;;;;2.92;1.20;;;31.10;91.40;;;;;;2035141;70;21062;-93
2022/06/13 17:17:51;;;;;;;2.90;1.15;;;31.20;91.30;;;;;;2036648;70;21039;-90
2022/06/13 17:20:45;;;;;;;4.17;1.25;;;31.30;90.50;;;;;;2035040;70;21103;-92
2022/06/13 17:23:40;;;;;;;2.58;1.20;;;31.10;91.00;;;;;;2032915;70;21151;-92
2022/06/13 17:32:52;;;;;;;4.15;1.27;;;30.20;91.50;;;;;;2035692;70;21062;-94
2022/06/13 17:35:44;;;;;;;4.60;1.40;;;30.00;91.60;;;;;;2043202;69;21088;-93
2022/06/13 17:38:37;;;;;;;4.03;1.40;;;30.00;91.60;;;;;;2034653;70;21075;-93
2022/06/13 17:41:29;;;;;;;3.83;1.20;;;29.60;91.80;;;;;;2032604;70;21070;-93
2022/06/13 17:44:23;;;;;;;2.90;1.10;;;29.50;91.90;;;;;;2030924;69;21229;-93
2022/06/13 17:47:20;;;;;;;2.92;1.20;;;29.40;92.00;;;;;;2037158;69;21626;-92
2022/06/13 17:50:14;;;;;;;3.37;1.20;;;29.20;92.20;;;;;;2052123;69;21077;-88
2022/06/13 17:53:05;;;;;;;2.65;1.42;;;29.10;92.00;;;;;;2044388;69;21145;-86
2022/06/13 17:55:57;;;;;;;3.35;1.32;;;29.00;91.90;;;;;;2045817;69;21091;-87
2022/06/13 17:58:49;;;;;;;3.50;0.95;;;28.90;91.50;;;;;;2038464;69;21174;-86
2022/06/13 18:01:41;;;;;;;2.60;1.10;;;29.00;91.00;;;;;;2039951;69;21083;-90
2022/06/13 18:04:34;;;;;;;2.15;1.17;;;29.00;90.70;;;;;;2039449;69;21153;-94
2022/06/13 18:07:27;;;;;;;7.10;1.77;;;28.80;90.90;;;;;;2046846;69;22208;-89
2022/06/13 18:10:19;;;;;;;3.52;1.40;;;28.50;90.80;;;;;;2065436;69;21081;-92
2022/06/13 18:13:11;;;;;;;3.98;0.90;;;28.70;90.30;;;;;;2046960;69;21079;-92
2022/06/13 18:16:03;;;;;;;1.95;1.30;;;28.70;90.10;;;;;;2039539;69;21085;-90
2022/06/13 18:18:57;;;;;;;2.08;0.90;;;28.50;90.00;;;;;;2043699;69;21133;-92
2022/06/13 18:21:52;;;;;;;1.52;0.85;;;28.40;89.50;;;;;;2048631;69;21067;-92
2022/06/13 18:24:44;;;;;;;2.65;0.85;;;28.50;88.70;;;;;;2040820;69;21322;-88
2022/06/13 18:27:37;;;;;;;3.00;1.12;;;28.30;87.40;;;;;;2050976;69;21139;-91
2022/06/13 18:30:29;;;;;;;4.85;0.90;;;28.30;87.60;;;;;;2045662;69;21074;-92
2022/06/13 18:33:22;;;;;;;4.65;1.00;;;28.30;86.50;;;;;;2040109;69;21837;-89
2022/06/13 18:36:13;;;;;;;2.60;0.95;;;27.80;86.60;;;;;;2041392;69;21099;-89
2022/06/13 18:39:05;;;;;;;1.87;0.90;;;27.30;88.20;;;;;;2041404;69;21603;-90
2022/06/13 18:41:57;;;;;;;2.42;0.80;;;27.00;88.00;;;;;;2045252;69;21176;-92
2022/06/13 18:44:49;;;;;;;5.92;1.22;;;26.70;88.60;;;;;;2054141;69;21067;-92